Time;durP1;ratioP1;P1;durP2;ratioP2;P2;SDS_P1;SDS_P2;PMS_P1;PMS_P2;Temp;Humidity;BMP_temperature;BMP_pressure;BME280_temperature;BME280_humidity;BME280_pressure;Samples;Min_cycle;Max_cycle;Signal;HPM_P1;HPM_P2
2022/02/12 00:02:13;;;;;;;;;;;;;;;1.99;87.88;100355.00;5115009;28;890;-57
2022/02/12 00:04:40;;;;;;;;;;;;;;;1.95;87.86;100357.59;5114612;28;980;-57
2022/02/12 00:07:07;;;;;;;;;;;;;;;1.88;88.51;100356.50;5114814;28;818;-57
2022/02/12 00:09:33;;;;;;;;;;;;;;;1.84;88.00;100356.38;5114598;28;841;-57
2022/02/12 00:12:00;;;;;;;;;;;;;;;1.76;88.63;100359.94;5114567;28;865;-57
2022/02/12 00:14:26;;;;;;;;;;;;;;;1.76;88.88;100355.28;5114394;28;1885;-57
2022/02/12 00:16:52;;;;;;;;;;;;;;;1.72;88.71;100343.44;5114269;28;1122;-57
2022/02/12 00:19:19;;;;;;;;;;;;;;;1.65;88.79;100351.34;5114402;28;870;-57
2022/02/12 00:21:46;;;;;;;;;;;;;;;1.55;88.07;100355.22;5114315;28;884;-57
2022/02/12 00:24:12;;;;;;;;;;;;;;;1.60;88.78;100356.97;5114361;28;896;-59
2022/02/12 00:26:39;;;;;;;;;;;;;;;1.67;88.65;100356.47;5114330;28;877;-59
2022/02/12 00:29:05;;;;;;;;;;;;;;;1.71;89.13;100360.13;5113832;28;1202;-59
2022/02/12 00:31:31;;;;;;;;;;;;;;;1.72;88.83;100357.06;5114127;28;869;-59
2022/02/12 00:33:58;;;;;;;;;;;;;;;1.69;88.78;100360.47;5114293;28;1968;-59
2022/02/12 00:36:24;;;;;;;;;;;;;;;1.62;88.70;100362.88;5113996;28;814;-59
2022/02/12 00:38:51;;;;;;;;;;;;;;;1.64;89.19;100352.47;5114128;28;818;-59
2022/02/12 00:41:18;;;;;;;;;;;;;;;1.69;89.27;100362.41;5114116;28;798;-59
2022/02/12 00:43:45;;;;;;;;;;;;;;;1.72;89.22;100362.53;5113927;28;927;-59
2022/02/12 00:46:11;;;;;;;;;;;;;;;1.69;89.52;100357.75;5114078;28;827;-59
2022/02/12 00:48:38;;;;;;;;;;;;;;;1.63;89.29;100359.84;5113793;28;814;-59
2022/02/12 00:51:04;;;;;;;;;;;;;;;1.59;89.52;100360.84;5095598;28;818;-59
2022/02/12 00:53:31;;;;;;;;;;;;;;;1.58;89.60;100360.03;5113725;28;1926;-59
2022/02/12 00:55:57;;;;;;;;;;;;;;;1.56;89.99;100362.28;5113743;28;799;-59
2022/02/12 00:58:23;;;;;;;;;;;;;;;1.46;89.39;100361.88;5113610;28;854;-57
2022/02/12 01:00:50;;;;;;;;;;;;;;;1.34;89.86;100357.88;5113651;28;922;-57
2022/02/12 01:03:16;;;;;;;;;;;;;;;1.33;90.57;100361.75;5113683;28;826;-58
2022/02/12 01:05:43;;;;;;;;;;;;;;;1.38;90.55;100361.56;5114055;28;930;-58
2022/02/12 01:08:10;;;;;;;;;;;;;;;1.55;90.30;100360.69;5113759;28;881;-57
2022/02/12 01:10:36;;;;;;;;;;;;;;;1.71;89.81;100355.50;5113649;28;889;-59
2022/02/12 01:13:03;;;;;;;;;;;;;;;1.83;89.92;100352.03;5113295;28;1950;-59
2022/02/12 01:15:31;;;;;;;;;;;;;;;1.95;89.80;100352.13;5113325;28;922;-59
2022/02/12 01:17:58;;;;;;;;;;;;;;;2.00;89.82;100353.84;5113408;28;929;-58
2022/02/12 01:20:25;;;;;;;;;;;;;;;2.07;89.25;100353.31;5113588;28;829;-58
2022/02/12 01:22:52;;;;;;;;;;;;;;;2.00;88.40;100356.59;5113393;28;827;-59
2022/02/12 01:25:18;;;;;;;;;;;;;;;1.88;87.72;100357.31;5113897;28;759;-59
2022/02/12 01:27:44;;;;;;;;;;;;;;;1.80;87.56;100353.50;5112960;28;921;-59
2022/02/12 01:30:11;;;;;;;;;;;;;;;1.72;87.68;100353.56;5092310;27;1239;-58
2022/02/12 01:32:38;;;;;;;;;;;;;;;1.74;88.64;100364.94;5072301;28;889;-57
2022/02/12 01:35:07;;;;;;;;;;;;;;;1.75;88.44;100359.16;5072294;28;811;-58
2022/02/12 01:37:34;;;;;;;;;;;;;;;1.76;88.03;100362.66;5072051;28;863;-59
2022/02/12 01:40:01;;;;;;;;;;;;;;;1.75;87.88;100358.34;5072400;28;839;-58
2022/02/12 01:42:30;;;;;;;;;;;;;;;1.73;88.27;100366.03;5073156;28;760;-58
2022/02/12 01:45:00;;;;;;;;;;;;;;;1.77;88.05;100362.34;5072202;28;886;-59
2022/02/12 01:47:27;;;;;;;;;;;;;;;1.79;87.99;100362.00;5071927;28;863;-59
2022/02/12 01:49:54;;;;;;;;;;;;;;;1.66;87.85;100377.47;5071806;28;1222;-58
2022/02/12 01:52:21;;;;;;;;;;;;;;;1.42;87.31;100376.13;5071978;28;866;-58
2022/02/12 01:54:47;;;;;;;;;;;;;;;1.18;87.42;100375.91;5071758;28;1910;-59
2022/02/12 01:57:14;;;;;;;;;;;;;;;1.04;88.54;100372.56;5071802;28;819;-59
2022/02/12 01:59:40;;;;;;;;;;;;;;;0.90;87.84;100383.66;5072064;28;866;-59
2022/02/12 02:02:06;;;;;;;;;;;;;;;0.75;88.38;100383.03;5071872;28;791;-58
2022/02/12 02:04:33;;;;;;;;;;;;;;;0.58;88.46;100381.13;5071810;28;881;-59
2022/02/12 02:07:00;;;;;;;;;;;;;;;0.42;88.44;100390.88;5071690;28;910;-59
2022/02/12 02:09:29;;;;;;;;;;;;;;;0.34;89.41;100378.06;5071687;28;822;-59
2022/02/12 02:11:56;;;;;;;;;;;;;;;0.36;89.63;100384.00;5071467;28;938;-58
2022/02/12 02:14:32;;;;;;;;;;;;;;;0.48;90.17;100386.88;5070948;28;1956;-58
2022/02/12 02:16:59;;;;;;;;;;;;;;;0.54;89.88;100384.81;5072064;28;1050;-58
2022/02/12 02:19:26;;;;;;;;;;;;;;;0.51;90.45;100388.16;5071429;28;912;-58
2022/02/12 02:21:53;;;;;;;;;;;;;;;0.59;90.39;100390.88;5071818;28;818;-58
2022/02/12 02:24:20;;;;;;;;;;;;;;;0.57;90.12;100390.41;5053551;28;925;-58
2022/02/12 02:26:47;;;;;;;;;;;;;;;0.45;90.70;100392.97;5071336;28;811;-58
2022/02/12 02:29:13;;;;;;;;;;;;;;;0.23;90.06;100388.47;5081051;28;1225;-58
2022/02/12 02:31:40;;;;;;;;;;;;;;;0.14;90.70;100396.63;5091564;28;894;-58
2022/02/12 02:34:07;;;;;;;;;;;;;;;0.48;91.30;100395.06;5091568;28;1963;-58
2022/02/12 02:36:34;;;;;;;;;;;;;;;1.03;92.90;100390.84;5091574;28;922;-58
2022/02/12 02:39:01;;;;;;;;;;;;;;;1.57;92.15;100393.84;5091529;28;827;-58
2022/02/12 02:41:28;;;;;;;;;;;;;;;2.04;92.53;100393.75;5091413;28;890;-58
2022/02/12 02:43:54;;;;;;;;;;;;;;;2.49;91.45;100395.06;5091567;28;898;-58
2022/02/12 02:46:20;;;;;;;;;;;;;;;2.88;91.17;100392.97;5107246;28;943;-58
2022/02/12 02:48:47;;;;;;;;;;;;;;;2.95;89.49;100397.88;5091505;28;847;-58
2022/02/12 02:56:43;;;;;;;;;;;;;;;1.40;86.98;100402.88;5091296;28;621;-58
2022/02/12 02:59:10;;;;;;;;;;;;;;;0.91;89.43;100404.31;5091371;28;906;-58
2022/02/12 03:01:36;;;;;;;;;;;;;;;0.79;90.20;100408.50;5091526;28;901;-58
2022/02/12 03:04:03;;;;;;;;;;;;;;;0.81;90.57;100408.97;5091292;28;826;-58
2022/02/12 03:06:30;;;;;;;;;;;;;;;0.89;91.23;100407.34;5091406;28;799;-58
2022/02/12 03:08:57;;;;;;;;;;;;;;;0.95;91.85;100410.72;5091066;28;933;-58
2022/02/12 03:11:24;;;;;;;;;;;;;;;1.01;92.03;100407.50;5091172;28;989;-59
2022/02/12 03:13:51;;;;;;;;;;;;;;;1.04;92.25;100416.13;5091200;28;1882;-58
2022/02/12 03:16:18;;;;;;;;;;;;;;;1.02;92.68;100416.44;5091378;28;975;-59
2022/02/12 03:18:45;;;;;;;;;;;;;;;1.02;93.06;100421.91;5091393;28;890;-59
2022/02/12 03:21:12;;;;;;;;;;;;;;;0.92;93.44;100419.53;5091259;28;862;-59
2022/02/12 03:23:39;;;;;;;;;;;;;;;0.87;93.62;100420.47;5090955;28;867;-58
2022/02/12 03:26:05;;;;;;;;;;;;;;;0.79;93.96;100424.81;5093048;28;890;-58
2022/02/12 03:28:32;;;;;;;;;;;;;;;0.67;94.43;100424.66;5094907;28;1421;-59
2022/02/12 03:30:59;;;;;;;;;;;;;;;0.59;94.25;100420.81;5095125;28;823;-59
2022/02/12 03:33:26;;;;;;;;;;;;;;;0.49;94.86;100431.19;5095082;28;1963;-57
2022/02/12 03:35:53;;;;;;;;;;;;;;;0.36;94.24;100427.50;5095092;28;851;-57
2022/02/12 03:38:22;;;;;;;;;;;;;;;0.20;94.45;100427.19;5095059;28;894;-57
2022/02/12 03:40:50;;;;;;;;;;;;;;;0.08;94.60;100437.88;5094884;28;839;-57
2022/02/12 03:43:17;;;;;;;;;;;;;;;0.01;94.65;100430.19;5094764;28;858;-57
2022/02/12 03:45:44;;;;;;;;;;;;;;;-0.03;94.99;100427.28;5094864;28;835;-57
2022/02/12 03:48:11;;;;;;;;;;;;;;;-0.02;94.83;100428.91;5094490;28;958;-59
2022/02/12 03:50:38;;;;;;;;;;;;;;;-0.08;94.55;100424.72;5094703;28;819;-58
2022/02/12 03:53:05;;;;;;;;;;;;;;;-0.12;94.57;100422.94;5094209;28;1943;-57
2022/02/12 03:55:36;;;;;;;;;;;;;;;-0.16;94.64;100417.34;5094390;28;869;-57
2022/02/12 03:58:03;;;;;;;;;;;;;;;-0.26;94.53;100418.41;5094544;28;886;-57
2022/02/12 04:00:30;;;;;;;;;;;;;;;-0.34;94.20;100421.94;5094384;28;862;-57
2022/02/12 04:02:57;;;;;;;;;;;;;;;-0.41;94.29;100418.84;5094168;28;892;-57
2022/02/12 04:05:23;;;;;;;;;;;;;;;-0.37;94.43;100417.09;5094347;28;862;-57
2022/02/12 04:07:50;;;;;;;;;;;;;;;-0.16;94.87;100411.91;5094363;28;882;-57
2022/02/12 04:10:17;;;;;;;;;;;;;;;-0.10;94.58;100420.72;5094062;28;875;-59
2022/02/12 04:12:44;;;;;;;;;;;;;;;-0.05;94.66;100428.72;5075991;28;1172;-59
2022/02/12 04:15:11;;;;;;;;;;;;;;;-0.02;94.45;100419.94;5093959;28;932;-59
2022/02/12 04:17:39;;;;;;;;;;;;;;;-0.07;93.95;100425.50;5094075;28;878;-59
2022/02/12 04:20:06;;;;;;;;;;;;;;;-0.12;94.14;100441.97;5094036;28;990;-59
2022/02/12 04:22:32;;;;;;;;;;;;;;;-0.11;94.30;100427.25;5094066;28;854;-59
2022/02/12 04:24:59;;;;;;;;;;;;;;;0.04;94.57;100434.19;5093845;28;799;-57
2022/02/12 04:27:26;;;;;;;;;;;;;;;0.04;94.11;100448.56;5093844;28;884;-59
2022/02/12 04:29:53;;;;;;;;;;;;;;;0.09;93.89;100442.19;5093570;28;1213;-59
2022/02/12 04:32:22;;;;;;;;;;;;;;;0.02;93.48;100444.56;5093638;28;933;-59
2022/02/12 04:34:50;;;;;;;;;;;;;;;-0.02;93.36;100456.06;5093708;28;1913;-59
2022/02/12 04:37:16;;;;;;;;;;;;;;;-0.05;93.71;100453.97;5092999;28;842;-58
2022/02/12 04:39:42;;;;;;;;;;;;;;;-0.13;93.31;100451.22;5093510;28;862;-59
2022/02/12 04:42:11;;;;;;;;;;;;;;;-0.29;93.32;100457.09;5093667;28;823;-59
2022/02/12 04:44:41;;;;;;;;;;;;;;;-0.34;93.61;100454.53;5093408;28;910;-59
2022/02/12 04:47:08;;;;;;;;;;;;;;;-0.19;94.34;100458.75;5093528;28;893;-59
2022/02/12 04:49:38;;;;;;;;;;;;;;;0.04;94.29;100464.06;5093488;28;838;-59
2022/02/12 04:52:06;;;;;;;;;;;;;;;0.25;94.30;100467.81;5093253;28;811;-58
2022/02/12 04:54:33;;;;;;;;;;;;;;;0.29;93.63;100470.69;5093258;28;1955;-59
2022/02/12 04:57:00;;;;;;;;;;;;;;;0.21;93.31;100477.72;5093309;28;846;-58
2022/02/12 04:59:27;;;;;;;;;;;;;;;0.11;93.29;100478.03;5093244;28;882;-58
2022/02/12 05:01:53;;;;;;;;;;;;;;;0.02;93.46;100488.84;5093227;28;881;-58
2022/02/12 05:04:20;;;;;;;;;;;;;;;-0.11;93.24;100476.16;5093054;28;954;-59
2022/02/12 05:06:46;;;;;;;;;;;;;;;-0.22;93.38;100479.16;5093032;28;864;-58
2022/02/12 05:09:14;;;;;;;;;;;;;;;-0.27;93.43;100482.03;5092968;28;866;-58
2022/02/12 05:11:41;;;;;;;;;;;;;;;-0.34;93.14;100484.41;5092898;28;882;-58
2022/02/12 05:14:09;;;;;;;;;;;;;;;-0.51;93.21;100487.00;5092841;28;1952;-58
2022/02/12 05:16:36;;;;;;;;;;;;;;;-0.37;94.45;100497.78;5093071;28;1027;-59
2022/02/12 05:19:02;;;;;;;;;;;;;;;-0.36;93.86;100491.25;5092801;28;959;-58
2022/02/12 05:21:29;;;;;;;;;;;;;;;-0.16;94.56;100492.63;5092809;28;958;-58
2022/02/12 05:23:55;;;;;;;;;;;;;;;-0.09;93.88;100491.03;5092663;28;819;-58
2022/02/12 05:26:21;;;;;;;;;;;;;;;-0.02;93.27;100512.34;5092757;28;823;-58
2022/02/12 05:28:48;;;;;;;;;;;;;;;0.05;92.88;100503.75;5092547;28;1205;-58
2022/02/12 05:31:14;;;;;;;;;;;;;;;0.17;92.63;100507.47;5092831;28;803;-58
2022/02/12 05:33:41;;;;;;;;;;;;;;;0.27;92.62;100516.44;5092470;28;1995;-58
2022/02/12 05:36:09;;;;;;;;;;;;;;;0.48;92.55;100519.38;5092513;28;791;-58
2022/02/12 05:38:39;;;;;;;;;;;;;;;0.65;92.78;100524.84;5092476;28;876;-59
2022/02/12 05:41:06;;;;;;;;;;;;;;;0.76;92.63;100528.06;5092500;28;826;-58
2022/02/12 05:43:33;;;;;;;;;;;;;;;0.85;92.25;100538.94;5092410;28;883;-58
2022/02/12 05:46:00;;;;;;;;;;;;;;;0.95;91.50;100538.63;5092416;28;823;-58
2022/02/12 05:48:27;;;;;;;;;;;;;;;1.04;91.51;100541.38;5091800;28;807;-58
2022/02/12 05:50:54;;;;;;;;;;;;;;;1.18;91.34;100542.81;5091861;28;830;-58
2022/02/12 05:53:20;;;;;;;;;;;;;;;1.34;90.20;100550.47;5092046;28;1947;-58
2022/02/12 05:55:47;;;;;;;;;;;;;;;1.50;90.23;100556.25;5092247;28;1188;-59
2022/02/12 05:58:14;;;;;;;;;;;;;;;1.75;88.91;100558.13;5092352;28;827;-58
2022/02/12 06:00:39;;;;;;;;;;;;;;;1.93;87.97;100566.25;5092196;28;881;-58
2022/02/12 06:03:05;;;;;;;;;;;;;;;2.13;87.05;100562.78;5092022;28;846;-58
2022/02/12 06:05:32;;;;;;;;;;;;;;;2.34;86.04;100564.81;5092031;28;888;-58
2022/02/12 06:08:04;;;;;;;;;;;;;;;2.62;85.19;100574.16;5091846;28;870;-58
2022/02/12 06:10:31;;;;;;;;;;;;;;;2.88;82.98;100567.72;5091805;28;910;-58
2022/02/12 06:12:57;;;;;;;;;;;;;;;2.96;81.85;100566.03;5091833;28;1886;-58
2022/02/12 06:15:23;;;;;;;;;;;;;;;2.88;82.20;100565.00;5091932;28;968;-58
2022/02/12 06:17:49;;;;;;;;;;;;;;;2.90;82.56;100572.81;5091719;28;878;-58
2022/02/12 06:20:16;;;;;;;;;;;;;;;3.05;82.49;100573.06;5091674;28;939;-58
2022/02/12 06:22:43;;;;;;;;;;;;;;;3.10;81.29;100574.00;5091617;28;919;-58
2022/02/12 06:25:09;;;;;;;;;;;;;;;3.13;82.02;100574.09;5091577;28;886;-58
2022/02/12 06:27:36;;;;;;;;;;;;;;;3.03;82.09;100578.06;5091778;28;897;-58
2022/02/12 06:30:04;;;;;;;;;;;;;;;2.95;83.08;100597.22;5091452;28;1434;-58
2022/02/12 06:32:31;;;;;;;;;;;;;;;2.98;83.33;100593.81;5107354;28;845;-58
2022/02/12 06:35:00;;;;;;;;;;;;;;;3.06;83.32;100601.16;5091563;28;1906;-58
2022/02/12 06:37:28;;;;;;;;;;;;;;;3.21;82.88;100589.63;5091466;28;898;-58
2022/02/12 06:39:55;;;;;;;;;;;;;;;3.40;82.42;100591.91;5091597;28;835;-58
2022/02/12 06:42:20;;;;;;;;;;;;;;;3.31;82.37;100609.47;5091635;28;890;-58
2022/02/12 06:44:47;;;;;;;;;;;;;;;3.17;83.49;100612.50;5091515;28;826;-58
2022/02/12 06:47:13;;;;;;;;;;;;;;;3.08;83.99;100609.03;5091526;28;847;-58
2022/02/12 06:49:40;;;;;;;;;;;;;;;3.15;83.79;100617.50;5091496;28;886;-57
2022/02/12 06:52:07;;;;;;;;;;;;;;;3.30;83.00;100627.03;5091693;28;905;-58
2022/02/12 06:54:33;;;;;;;;;;;;;;;3.18;82.42;100633.19;5091391;28;1943;-58
2022/02/12 06:57:00;;;;;;;;;;;;;;;3.26;81.91;100632.34;5091469;28;922;-58
2022/02/12 06:59:27;;;;;;;;;;;;;;;3.43;82.14;100636.88;5091483;28;875;-58
2022/02/12 07:01:53;;;;;;;;;;;;;;;3.72;80.50;100630.53;5094884;28;882;-58
2022/02/12 07:04:19;;;;;;;;;;;;;;;3.73;80.26;100629.38;5095683;28;870;-58
2022/02/12 07:06:46;;;;;;;;;;;;;;;3.76;79.79;100627.94;5095457;28;861;-58
2022/02/12 07:09:12;;;;;;;;;;;;;;;3.94;80.31;100634.81;5095307;28;827;-58
2022/02/12 07:11:40;;;;;;;;;;;;;;;4.21;79.47;100627.94;5095505;28;859;-58
2022/02/12 07:14:06;;;;;;;;;;;;;;;4.35;78.01;100630.34;5095239;28;1948;-58
2022/02/12 07:16:32;;;;;;;;;;;;;;;3.99;78.23;100631.06;5095312;28;1116;-58
2022/02/12 07:19:00;;;;;;;;;;;;;;;4.03;79.12;100637.47;5095284;28;799;-58
2022/02/12 07:21:26;;;;;;;;;;;;;;;4.28;79.03;100633.63;5095040;28;787;-58
2022/02/12 07:23:51;;;;;;;;;;;;;;;4.68;78.23;100624.78;5095140;28;933;-58
2022/02/12 07:26:18;;;;;;;;;;;;;;;4.94;77.19;100623.63;5094991;28;862;-58
2022/02/12 07:28:44;;;;;;;;;;;;;;;5.31;76.05;100629.84;5094608;28;1291;-58
2022/02/12 07:31:12;;;;;;;;;;;;;;;5.78;74.71;100633.09;5094950;28;834;-59
2022/02/12 07:33:38;;;;;;;;;;;;;;;5.95;74.31;100638.31;5094940;28;1906;-58
2022/02/12 07:36:07;;;;;;;;;;;;;;;6.21;74.28;100632.34;5094862;28;901;-59
2022/02/12 07:38:34;;;;;;;;;;;;;;;6.79;72.80;100626.31;5094644;28;908;-58
2022/02/12 07:41:01;;;;;;;;;;;;;;;7.12;71.15;100628.63;5094712;28;897;-59
2022/02/12 07:43:26;;;;;;;;;;;;;;;7.43;70.61;100637.16;5094685;28;866;-58
2022/02/12 07:45:54;;;;;;;;;;;;;;;7.64;69.73;100636.78;5094746;28;930;-59
2022/02/12 07:48:21;;;;;;;;;;;;;;;8.01;69.15;100647.38;5094454;28;930;-59
2022/02/12 07:50:48;;;;;;;;;;;;;;;8.46;68.92;100640.31;5094348;28;918;-59
2022/02/12 07:53:15;;;;;;;;;;;;;;;8.77;67.95;100642.81;5094539;28;1967;-58
2022/02/12 07:55:41;;;;;;;;;;;;;;;9.04;67.11;100647.53;5094353;28;878;-58
2022/02/12 07:58:11;;;;;;;;;;;;;;;9.22;66.38;100637.56;5094507;28;815;-59
2022/02/12 08:00:37;;;;;;;;;;;;;;;9.68;65.20;100634.59;5094344;28;814;-58
2022/02/12 08:03:04;;;;;;;;;;;;;;;9.99;63.26;100646.41;5094456;28;822;-58
2022/02/12 08:05:30;;;;;;;;;;;;;;;10.28;62.19;100638.41;5094329;28;873;-58
2022/02/12 08:07:56;;;;;;;;;;;;;;;10.67;60.84;100638.78;5094261;28;906;-59
2022/02/12 08:13:08;;;;;;;;;;;;;;;11.99;57.69;100649.00;5093199;28;1878;-59
2022/02/12 08:15:34;;;;;;;;;;;;;;;12.69;55.92;100648.72;5094176;28;934;-59
2022/02/12 08:18:00;;;;;;;;;;;;;;;13.14;53.05;100649.84;5093956;28;863;-59
2022/02/12 08:20:26;;;;;;;;;;;;;;;13.44;51.94;100643.88;5093795;28;934;-59
2022/02/12 08:22:53;;;;;;;;;;;;;;;13.36;49.64;100635.97;5094091;28;833;-59
2022/02/12 08:25:20;;;;;;;;;;;;;;;13.24;49.86;100645.47;5094202;28;827;-58
2022/02/12 08:27:46;;;;;;;;;;;;;;;13.10;49.96;100643.53;5094063;28;1028;-57
2022/02/12 08:30:13;;;;;;;;;;;;;;;13.21;50.21;100646.28;5093874;28;1256;-58
2022/02/12 08:32:41;;;;;;;;;;;;;;;13.27;49.82;100648.25;5094131;28;827;-58
2022/02/12 08:35:10;;;;;;;;;;;;;;;13.22;49.26;100648.63;5093791;28;1984;-58
2022/02/12 08:37:39;;;;;;;;;;;;;;;13.40;49.70;100651.41;5093667;28;783;-59
2022/02/12 08:40:07;;;;;;;;;;;;;;;13.31;49.58;100661.34;5093422;28;910;-58
2022/02/12 08:42:35;;;;;;;;;;;;;;;13.21;49.28;100660.94;5093584;28;891;-58
2022/02/12 08:45:03;;;;;;;;;;;;;;;13.41;50.24;100666.88;5093314;28;899;-59
2022/02/12 08:47:30;;;;;;;;;;;;;;;13.40;49.06;100670.03;5075331;28;1373;-58
2022/02/12 08:49:56;;;;;;;;;;;;;;;13.52;50.19;100677.94;5093545;28;795;-58
2022/02/12 08:52:24;;;;;;;;;;;;;;;13.74;49.15;100659.25;5093259;28;1001;-58
2022/02/12 08:54:51;;;;;;;;;;;;;;;13.48;48.52;100672.44;5093142;28;1894;-58
2022/02/12 08:57:17;;;;;;;;;;;;;;;13.54;49.42;100670.00;5093386;28;886;-59
2022/02/12 08:59:44;;;;;;;;;;;;;;;13.73;49.33;100674.31;5093209;28;826;-59
2022/02/12 09:02:11;;;;;;;;;;;;;;;13.74;49.11;100669.53;5093368;28;857;-59
2022/02/12 09:04:39;;;;;;;;;;;;;;;13.52;48.41;100677.16;5093098;28;858;-58
2022/02/12 09:07:05;;;;;;;;;;;;;;;13.46;48.62;100683.13;5092944;28;957;-58
2022/02/12 09:09:34;;;;;;;;;;;;;;;13.31;48.16;100681.56;5092899;28;866;-58
2022/02/12 09:12:00;;;;;;;;;;;;;;;13.25;48.49;100680.38;5093094;28;851;-56
2022/02/12 09:14:27;;;;;;;;;;;;;;;13.14;49.48;100687.91;5092723;28;1889;-58
2022/02/12 09:16:56;;;;;;;;;;;;;;;13.21;48.42;100672.06;5108877;28;1155;-57
2022/02/12 09:19:23;;;;;;;;;;;;;;;13.07;48.97;100686.72;5092862;28;846;-58
2022/02/12 09:21:49;;;;;;;;;;;;;;;13.24;48.71;100692.66;5092822;28;865;-58
2022/02/12 09:24:18;;;;;;;;;;;;;;;13.15;48.37;100703.41;5092283;28;938;-58
2022/02/12 09:39:34;;;;;;;;;;;;;;;12.75;49.58;100719.25;5072358;28;625;-53
2022/02/12 09:42:01;;;;;;;;;;;;;;;12.69;50.34;100709.72;5072154;28;1174;-56
2022/02/12 09:44:28;;;;;;;;;;;;;;;12.63;50.68;100714.84;5072287;28;839;-57
2022/02/12 09:47:04;;;;;;;;;;;;;;;12.76;49.79;100720.81;5072004;28;897;-58
2022/02/12 09:49:30;;;;;;;;;;;;;;;12.85;49.91;100722.03;5071943;28;982;-55
2022/02/12 09:52:00;;;;;;;;;;;;;;;12.89;50.12;100719.25;5071926;28;850;-58
2022/02/12 09:54:26;;;;;;;;;;;;;;;13.00;49.98;100722.03;5071853;28;1905;-58
2022/02/12 09:56:53;;;;;;;;;;;;;;;12.91;49.32;100716.88;5071962;28;854;-56
2022/02/12 09:59:19;;;;;;;;;;;;;;;12.66;49.68;100708.53;5072098;28;944;-57
2022/02/12 10:01:46;;;;;;;;;;;;;;;12.69;50.46;100706.94;5071919;28;862;-58
2022/02/12 10:04:14;;;;;;;;;;;;;;;12.72;50.41;100739.47;5072173;28;882;-58
2022/02/12 10:06:42;;;;;;;;;;;;;;;12.70;50.04;100748.16;5071829;28;873;-59
2022/02/12 10:09:09;;;;;;;;;;;;;;;12.11;51.53;100758.69;5071690;28;965;-59
2022/02/12 10:11:40;;;;;;;;;;;;;;;11.85;52.05;100746.69;5072016;28;976;-59
2022/02/12 10:14:10;;;;;;;;;;;;;;;12.13;52.18;100756.34;5071500;28;1973;-59
2022/02/12 10:16:53;;;;;;;;;;;;;;;12.54;51.67;100745.75;5072375;28;1013;-59
2022/02/12 10:19:27;;;;;;;;;;;;;;;12.71;50.18;100760.84;5071462;28;847;-59
2022/02/12 10:22:04;;;;;;;;;;;;;;;12.63;49.78;100762.00;5071694;28;934;-59
2022/02/12 10:24:50;;;;;;;;;;;;;;;12.00;49.95;100764.97;5071466;28;998;-59
2022/02/12 10:27:21;;;;;;;;;;;;;;;11.42;51.76;100746.44;5071435;28;944;-57
2022/02/12 10:29:48;;;;;;;;;;;;;;;11.43;52.86;100751.56;5071492;28;871;-60
2022/02/12 10:32:16;;;;;;;;;;;;;;;11.94;52.01;100755.44;5071412;28;938;-59
2022/02/12 10:34:43;;;;;;;;;;;;;;;12.13;51.79;100736.94;5070924;28;1945;-58
2022/02/12 10:37:14;;;;;;;;;;;;;;;12.21;50.63;100771.81;5073902;28;1265;-59
2022/02/12 10:39:59;;;;;;;;;;;;;;;11.85;51.06;100755.00;5091597;28;874;-59
2022/02/12 10:42:26;;;;;;;;;;;;;;;11.33;52.75;100776.41;5073399;28;1192;-59
2022/02/12 10:44:53;;;;;;;;;;;;;;;10.99;54.23;100780.09;5091648;28;869;-59
2022/02/12 10:47:21;;;;;;;;;;;;;;;10.63;55.15;100782.50;5073298;28;691;-59
2022/02/12 10:49:48;;;;;;;;;;;;;;;10.64;56.02;100791.59;5091479;28;803;-59
2022/02/12 10:52:15;;;;;;;;;;;;;;;10.75;55.80;100775.94;5091378;28;938;-57
2022/02/12 10:54:42;;;;;;;;;;;;;;;10.73;56.20;100747.03;5091636;28;1977;-59
2022/02/12 10:57:09;;;;;;;;;;;;;;;10.86;56.58;100750.31;5091419;28;788;-59
2022/02/12 10:59:41;;;;;;;;;;;;;;;11.24;55.93;100749.06;5091316;28;870;-58
2022/02/12 11:02:08;;;;;;;;;;;;;;;11.24;55.43;100768.44;5091410;28;889;-58
2022/02/12 11:04:38;;;;;;;;;;;;;;;11.26;55.53;100760.53;5091855;28;850;-59
2022/02/12 11:07:06;;;;;;;;;;;;;;;11.31;55.01;100742.78;5091411;28;874;-59
2022/02/12 11:09:33;;;;;;;;;;;;;;;10.99;56.11;100757.97;5091182;28;964;-59
2022/02/12 11:12:04;;;;;;;;;;;;;;;10.82;56.46;100744.78;5091408;28;815;-58
2022/02/12 11:14:33;;;;;;;;;;;;;;;10.65;57.15;100787.66;5091172;28;1889;-58
2022/02/12 11:17:13;;;;;;;;;;;;;;;10.49;58.11;100787.09;5091006;28;1323;-60
2022/02/12 11:19:41;;;;;;;;;;;;;;;10.30;58.40;100801.88;5091180;28;957;-60
2022/02/12 11:22:11;;;;;;;;;;;;;;;10.21;58.71;100791.06;5091273;28;873;-60
2022/02/12 11:24:39;;;;;;;;;;;;;;;10.21;58.90;100788.31;5091259;28;943;-60
2022/02/12 11:27:15;;;;;;;;;;;;;;;10.02;58.77;100787.28;5091148;28;863;-59
2022/02/12 11:29:43;;;;;;;;;;;;;;;9.87;59.11;100776.44;5106910;28;865;-59
2022/02/12 11:32:11;;;;;;;;;;;;;;;10.11;58.83;100783.44;5091041;28;858;-59
2022/02/12 11:34:44;;;;;;;;;;;;;;;10.17;58.66;100804.06;5091008;28;1893;-60
2022/02/12 11:37:16;;;;;;;;;;;;;;;10.12;58.60;100801.63;5090865;28;1188;-59
2022/02/12 11:40:03;;;;;;;;;;;;;;;10.06;58.46;100814.16;5091035;28;798;-60
2022/02/12 11:42:59;;;;;;;;;;;;;;;10.04;58.37;100822.03;5090877;28;1795;-58
2022/02/12 11:45:30;;;;;;;;;;;;;;;9.91;58.88;100805.69;5077814;28;1785;-58
2022/02/12 11:48:12;;;;;;;;;;;;;;;10.04;58.74;100811.00;5094360;28;882;-58
2022/02/12 11:50:43;;;;;;;;;;;;;;;10.65;57.19;100811.72;5094789;28;811;-60
2022/02/12 11:53:27;;;;;;;;;;;;;;;10.46;56.77;100821.03;5094485;28;1969;-60
2022/02/12 11:55:54;;;;;;;;;;;;;;;9.87;58.81;100843.50;5094878;28;811;-59
2022/02/12 11:58:39;;;;;;;;;;;;;;;9.69;59.19;100831.41;5094474;28;913;-60
2022/02/12 12:01:06;;;;;;;;;;;;;;;9.62;59.87;100865.19;5094414;28;803;-60
2022/02/12 12:03:53;;;;;;;;;;;;;;;9.51;59.71;100889.06;5094477;28;791;-60
2022/02/12 12:06:20;;;;;;;;;;;;;;;9.37;59.83;100884.91;5094286;28;2013;-59
2022/02/12 12:09:16;;;;;;;;;;;;;;;9.27;60.31;100895.75;5094079;28;969;-59
2022/02/12 12:12:02;;;;;;;;;;;;;;;9.17;60.49;100897.97;5081004;28;1339;-59
2022/02/12 12:14:28;;;;;;;;;;;;;;;9.17;60.54;100906.25;5094045;28;1885;-58
2022/02/12 12:16:56;;;;;;;;;;;;;;;9.10;60.82;100922.63;5094396;28;974;-58
2022/02/12 12:19:40;;;;;;;;;;;;;;;9.15;60.08;100911.31;5094130;28;870;-59
2022/02/12 12:22:08;;;;;;;;;;;;;;;9.33;59.72;100928.19;5093905;28;918;-59
2022/02/12 12:24:35;;;;;;;;;;;;;;;9.41;59.57;100945.69;5094027;28;799;-59
2022/02/12 12:27:02;;;;;;;;;;;;;;;9.39;59.62;100942.50;5094045;28;799;-60
2022/02/12 12:32:15;;;;;;;;;;;;;;;9.34;59.90;100940.81;5093835;28;617;-59
2022/02/12 12:34:50;;;;;;;;;;;;;;;9.26;60.26;100958.41;5093606;28;1939;-59
2022/02/12 12:37:17;;;;;;;;;;;;;;;9.16;59.53;100953.50;5093414;28;1220;-59
2022/02/12 12:39:44;;;;;;;;;;;;;;;9.01;59.41;100963.44;5093546;28;927;-59
2022/02/12 12:42:15;;;;;;;;;;;;;;;9.07;59.63;100959.25;5093519;28;796;-59
2022/02/12 12:44:43;;;;;;;;;;;;;;;9.38;59.19;100971.25;5093419;28;894;-59
2022/02/12 12:47:10;;;;;;;;;;;;;;;9.67;58.51;100974.53;5093491;28;826;-59
2022/02/12 12:49:40;;;;;;;;;;;;;;;9.83;57.00;100972.41;5093407;28;830;-59
2022/02/12 12:52:08;;;;;;;;;;;;;;;10.35;56.34;100978.41;5093375;28;979;-59
2022/02/12 12:54:36;;;;;;;;;;;;;;;10.74;53.01;100967.88;5093274;28;1909;-59
2022/02/12 12:57:04;;;;;;;;;;;;;;;11.15;53.66;100972.72;5093336;28;850;-59
2022/02/12 12:59:32;;;;;;;;;;;;;;;11.44;52.99;100979.38;5092909;28;882;-59
2022/02/12 13:01:59;;;;;;;;;;;;;;;11.54;52.35;100975.94;5093191;28;961;-59
2022/02/12 13:04:26;;;;;;;;;;;;;;;11.11;51.95;100983.75;5093064;28;909;-59
2022/02/12 13:06:53;;;;;;;;;;;;;;;11.14;52.14;100982.22;5093142;28;791;-59
2022/02/12 13:09:20;;;;;;;;;;;;;;;11.63;51.33;100978.38;5092993;28;902;-59
2022/02/12 13:11:46;;;;;;;;;;;;;;;11.64;50.30;100988.25;5093350;28;853;-59
2022/02/12 13:14:13;;;;;;;;;;;;;;;11.31;51.15;100989.91;5092988;28;1882;-59
2022/02/12 13:16:42;;;;;;;;;;;;;;;11.03;52.13;100993.13;5093130;28;999;-59
2022/02/12 13:19:19;;;;;;;;;;;;;;;10.92;51.62;100997.75;5092814;28;923;-59
2022/02/12 13:21:54;;;;;;;;;;;;;;;10.57;52.25;101007.16;5093216;28;818;-59
2022/02/12 13:24:20;;;;;;;;;;;;;;;10.41;53.45;101012.84;5092744;28;971;-59
2022/02/12 13:26:52;;;;;;;;;;;;;;;10.42;53.53;101014.44;5092645;28;854;-59
2022/02/12 13:29:24;;;;;;;;;;;;;;;10.41;53.43;101021.94;5092759;28;788;-59